sensor_id;sensor_type;location;lat;lon;timestamp;P1;durP1;ratioP1;P2;durP2;ratioP2
84901;SDS011;75166;51.198;6.010;2024-02-26T00:01:53;5.25;;;1.60;;
84901;SDS011;75166;51.198;6.010;2024-02-26T00:04:19;5.55;;;1.65;;
84901;SDS011;75166;51.198;6.010;2024-02-26T00:06:46;5.57;;;1.70;;
84901;SDS011;75166;51.198;6.010;2024-02-26T00:09:13;6.35;;;2.15;;
84901;SDS011;75166;51.198;6.010;2024-02-26T00:11:38;5.93;;;1.60;;
84901;SDS011;75166;51.198;6.010;2024-02-26T00:14:04;4.70;;;1.65;;
84901;SDS011;75166;51.198;6.010;2024-02-26T00:16:30;4.93;;;1.65;;
84901;SDS011;75166;51.198;6.010;2024-02-26T00:18:56;3.72;;;1.45;;
84901;SDS011;75166;51.198;6.010;2024-02-26T00:21:21;4.40;;;1.42;;
84901;SDS011;75166;51.198;6.010;2024-02-26T00:23:48;5.65;;;1.83;;
84901;SDS011;75166;51.198;6.010;2024-02-26T00:26:15;5.32;;;1.70;;
84901;SDS011;75166;51.198;6.010;2024-02-26T00:28:41;5.57;;;1.60;;
84901;SDS011;75166;51.198;6.010;2024-02-26T00:31:06;6.20;;;1.67;;
84901;SDS011;75166;51.198;6.010;2024-02-26T00:33:32;5.47;;;1.70;;
84901;SDS011;75166;51.198;6.010;2024-02-26T00:35:58;6.18;;;1.70;;
84901;SDS011;75166;51.198;6.010;2024-02-26T00:38:23;5.57;;;1.60;;
84901;SDS011;75166;51.198;6.010;2024-02-26T00:40:49;6.97;;;1.80;;
84901;SDS011;75166;51.198;6.010;2024-02-26T00:43:14;5.53;;;1.58;;
84901;SDS011;75166;51.198;6.010;2024-02-26T00:45:40;4.47;;;1.60;;
84901;SDS011;75166;51.198;6.010;2024-02-26T00:48:06;4.03;;;1.60;;
84901;SDS011;75166;51.198;6.010;2024-02-26T00:50:32;5.57;;;1.60;;
84901;SDS011;75166;51.198;6.010;2024-02-26T00:52:58;4.80;;;1.58;;
84901;SDS011;75166;51.198;6.010;2024-02-26T00:55:24;5.97;;;1.75;;
84901;SDS011;75166;51.198;6.010;2024-02-26T00:57:50;6.18;;;1.70;;
84901;SDS011;75166;51.198;6.010;2024-02-26T01:00:16;6.25;;;1.90;;
84901;SDS011;75166;51.198;6.010;2024-02-26T01:02:42;5.68;;;1.70;;
84901;SDS011;75166;51.198;6.010;2024-02-26T01:05:08;6.35;;;1.90;;
84901;SDS011;75166;51.198;6.010;2024-02-26T01:07:37;6.00;;;1.70;;
84901;SDS011;75166;51.198;6.010;2024-02-26T01:10:03;4.30;;;1.50;;
84901;SDS011;75166;51.198;6.010;2024-02-26T01:12:29;5.32;;;1.70;;
84901;SDS011;75166;51.198;6.010;2024-02-26T01:14:55;3.75;;;1.58;;
84901;SDS011;75166;51.198;6.010;2024-02-26T01:17:20;5.90;;;1.80;;
84901;SDS011;75166;51.198;6.010;2024-02-26T01:19:46;5.35;;;1.60;;
84901;SDS011;75166;51.198;6.010;2024-02-26T01:22:11;6.45;;;1.73;;
84901;SDS011;75166;51.198;6.010;2024-02-26T01:24:37;4.65;;;1.60;;
84901;SDS011;75166;51.198;6.010;2024-02-26T01:27:03;5.68;;;1.67;;
84901;SDS011;75166;51.198;6.010;2024-02-26T01:29:28;5.18;;;1.65;;
84901;SDS011;75166;51.198;6.010;2024-02-26T01:31:54;6.70;;;1.92;;
84901;SDS011;75166;51.198;6.010;2024-02-26T01:34:20;6.95;;;1.67;;
84901;SDS011;75166;51.198;6.010;2024-02-26T01:36:45;5.03;;;1.63;;
84901;SDS011;75166;51.198;6.010;2024-02-26T01:39:11;6.45;;;1.67;;
84901;SDS011;75166;51.198;6.010;2024-02-26T01:41:40;3.92;;;1.42;;
84901;SDS011;75166;51.198;6.010;2024-02-26T01:44:06;5.57;;;1.70;;
84901;SDS011;75166;51.198;6.010;2024-02-26T01:46:32;5.22;;;1.60;;
84901;SDS011;75166;51.198;6.010;2024-02-26T01:48:59;5.25;;;1.48;;
84901;SDS011;75166;51.198;6.010;2024-02-26T01:51:27;5.78;;;1.67;;
84901;SDS011;75166;51.198;6.010;2024-02-26T01:53:53;6.43;;;1.70;;
84901;SDS011;75166;51.198;6.010;2024-02-26T01:56:19;4.18;;;1.58;;
84901;SDS011;75166;51.198;6.010;2024-02-26T01:58:46;4.72;;;1.70;;
84901;SDS011;75166;51.198;6.010;2024-02-26T02:01:13;5.30;;;1.75;;
84901;SDS011;75166;51.198;6.010;2024-02-26T02:03:40;5.97;;;2.00;;
84901;SDS011;75166;51.198;6.010;2024-02-26T02:06:06;5.80;;;1.80;;
84901;SDS011;75166;51.198;6.010;2024-02-26T02:08:33;5.30;;;1.60;;
84901;SDS011;75166;51.198;6.010;2024-02-26T02:11:00;5.25;;;1.70;;
84901;SDS011;75166;51.198;6.010;2024-02-26T02:13:26;5.00;;;1.60;;
84901;SDS011;75166;51.198;6.010;2024-02-26T02:15:52;5.28;;;1.70;;
84901;SDS011;75166;51.198;6.010;2024-02-26T02:18:17;5.32;;;1.70;;
84901;SDS011;75166;51.198;6.010;2024-02-26T02:20:44;5.70;;;1.75;;
84901;SDS011;75166;51.198;6.010;2024-02-26T02:23:10;6.05;;;1.75;;
84901;SDS011;75166;51.198;6.010;2024-02-26T02:25:36;6.57;;;1.83;;
84901;SDS011;75166;51.198;6.010;2024-02-26T02:28:02;6.90;;;1.80;;
84901;SDS011;75166;51.198;6.010;2024-02-26T02:30:28;7.55;;;2.00;;
84901;SDS011;75166;51.198;6.010;2024-02-26T02:32:55;5.45;;;1.80;;
84901;SDS011;75166;51.198;6.010;2024-02-26T02:35:22;6.18;;;1.85;;
84901;SDS011;75166;51.198;6.010;2024-02-26T02:37:47;6.75;;;1.80;;
84901;SDS011;75166;51.198;6.010;2024-02-26T02:40:13;7.03;;;2.00;;
84901;SDS011;75166;51.198;6.010;2024-02-26T02:42:39;6.97;;;1.88;;
84901;SDS011;75166;51.198;6.010;2024-02-26T02:45:04;6.05;;;1.70;;
84901;SDS011;75166;51.198;6.010;2024-02-26T02:47:30;5.53;;;1.70;;
84901;SDS011;75166;51.198;6.010;2024-02-26T02:49:56;5.80;;;1.70;;
84901;SDS011;75166;51.198;6.010;2024-02-26T02:52:22;5.13;;;1.58;;
84901;SDS011;75166;51.198;6.010;2024-02-26T02:54:47;6.30;;;1.90;;
84901;SDS011;75166;51.198;6.010;2024-02-26T02:57:13;6.18;;;1.75;;
84901;SDS011;75166;51.198;6.010;2024-02-26T02:59:39;5.82;;;1.60;;
84901;SDS011;75166;51.198;6.010;2024-02-26T03:02:04;5.85;;;1.70;;
84901;SDS011;75166;51.198;6.010;2024-02-26T03:04:31;5.95;;;1.80;;
84901;SDS011;75166;51.198;6.010;2024-02-26T03:06:57;7.78;;;1.95;;
84901;SDS011;75166;51.198;6.010;2024-02-26T03:09:23;6.75;;;2.10;;
84901;SDS011;75166;51.198;6.010;2024-02-26T03:11:48;6.00;;;1.80;;
84901;SDS011;75166;51.198;6.010;2024-02-26T03:14:14;6.15;;;1.70;;
84901;SDS011;75166;51.198;6.010;2024-02-26T03:16:40;6.15;;;1.90;;
84901;SDS011;75166;51.198;6.010;2024-02-26T03:19:06;5.75;;;1.80;;
84901;SDS011;75166;51.198;6.010;2024-02-26T03:21:32;5.15;;;1.77;;
84901;SDS011;75166;51.198;6.010;2024-02-26T03:23:57;6.65;;;1.80;;
84901;SDS011;75166;51.198;6.010;2024-02-26T03:26:23;6.32;;;1.80;;
84901;SDS011;75166;51.198;6.010;2024-02-26T03:28:49;6.80;;;1.90;;
84901;SDS011;75166;51.198;6.010;2024-02-26T03:31:14;6.05;;;1.80;;
84901;SDS011;75166;51.198;6.010;2024-02-26T03:33:40;8.45;;;1.90;;
84901;SDS011;75166;51.198;6.010;2024-02-26T03:36:06;6.70;;;2.20;;
84901;SDS011;75166;51.198;6.010;2024-02-26T03:38:32;7.50;;;1.92;;
84901;SDS011;75166;51.198;6.010;2024-02-26T03:40:58;7.05;;;1.88;;
84901;SDS011;75166;51.198;6.010;2024-02-26T03:43:24;5.68;;;1.67;;
84901;SDS011;75166;51.198;6.010;2024-02-26T03:45:49;7.97;;;2.00;;
84901;SDS011;75166;51.198;6.010;2024-02-26T03:48:15;6.78;;;2.00;;
84901;SDS011;75166;51.198;6.010;2024-02-26T03:50:40;6.32;;;1.80;;
84901;SDS011;75166;51.198;6.010;2024-02-26T03:53:06;6.15;;;1.75;;
84901;SDS011;75166;51.198;6.010;2024-02-26T03:55:34;5.25;;;1.80;;
84901;SDS011;75166;51.198;6.010;2024-02-26T03:58:00;5.38;;;1.77;;
84901;SDS011;75166;51.198;6.010;2024-02-26T04:00:25;6.72;;;2.00;;
84901;SDS011;75166;51.198;6.010;2024-02-26T04:02:53;6.65;;;2.13;;
84901;SDS011;75166;51.198;6.010;2024-02-26T04:05:19;7.10;;;1.80;;
84901;SDS011;75166;51.198;6.010;2024-02-26T04:07:45;5.65;;;1.80;;
84901;SDS011;75166;51.198;6.010;2024-02-26T04:10:11;6.38;;;1.80;;
84901;SDS011;75166;51.198;6.010;2024-02-26T04:12:40;6.32;;;1.85;;
84901;SDS011;75166;51.198;6.010;2024-02-26T04:17:35;6.10;;;1.77;;
84901;SDS011;75166;51.198;6.010;2024-02-26T04:20:02;6.90;;;1.80;;
84901;SDS011;75166;51.198;6.010;2024-02-26T04:22:28;6.28;;;1.77;;
84901;SDS011;75166;51.198;6.010;2024-02-26T04:24:54;6.30;;;1.80;;
84901;SDS011;75166;51.198;6.010;2024-02-26T04:27:19;7.57;;;1.90;;
84901;SDS011;75166;51.198;6.010;2024-02-26T04:29:45;5.90;;;1.80;;
84901;SDS011;75166;51.198;6.010;2024-02-26T04:32:10;4.97;;;1.77;;
84901;SDS011;75166;51.198;6.010;2024-02-26T04:34:36;7.00;;;2.08;;
84901;SDS011;75166;51.198;6.010;2024-02-26T04:37:02;7.55;;;2.10;;
84901;SDS011;75166;51.198;6.010;2024-02-26T04:39:28;6.35;;;1.83;;
84901;SDS011;75166;51.198;6.010;2024-02-26T04:41:53;6.65;;;1.70;;
84901;SDS011;75166;51.198;6.010;2024-02-26T04:44:19;6.75;;;2.10;;
84901;SDS011;75166;51.198;6.010;2024-02-26T04:46:45;6.78;;;2.10;;
84901;SDS011;75166;51.198;6.010;2024-02-26T04:49:11;7.32;;;1.90;;
84901;SDS011;75166;51.198;6.010;2024-02-26T04:51:36;6.68;;;2.03;;
84901;SDS011;75166;51.198;6.010;2024-02-26T04:54:02;7.10;;;2.00;;
84901;SDS011;75166;51.198;6.010;2024-02-26T04:56:28;6.82;;;1.90;;
84901;SDS011;75166;51.198;6.010;2024-02-26T04:58:53;6.45;;;2.00;;
84901;SDS011;75166;51.198;6.010;2024-02-26T05:01:19;5.63;;;1.85;;
84901;SDS011;75166;51.198;6.010;2024-02-26T05:03:44;6.55;;;1.98;;
84901;SDS011;75166;51.198;6.010;2024-02-26T05:06:10;7.57;;;1.90;;
84901;SDS011;75166;51.198;6.010;2024-02-26T05:08:36;6.90;;;2.20;;
84901;SDS011;75166;51.198;6.010;2024-02-26T05:11:03;6.88;;;2.00;;
84901;SDS011;75166;51.198;6.010;2024-02-26T05:13:29;6.18;;;1.80;;
84901;SDS011;75166;51.198;6.010;2024-02-26T05:15:55;7.40;;;2.10;;
84901;SDS011;75166;51.198;6.010;2024-02-26T05:18:21;8.35;;;2.10;;
84901;SDS011;75166;51.198;6.010;2024-02-26T05:20:47;5.65;;;1.90;;
84901;SDS011;75166;51.198;6.010;2024-02-26T05:23:13;6.70;;;1.98;;
84901;SDS011;75166;51.198;6.010;2024-02-26T05:25:38;7.47;;;2.20;;
84901;SDS011;75166;51.198;6.010;2024-02-26T05:28:04;6.57;;;2.00;;
84901;SDS011;75166;51.198;6.010;2024-02-26T05:30:30;8.30;;;2.17;;
84901;SDS011;75166;51.198;6.010;2024-02-26T05:32:55;6.55;;;2.20;;
84901;SDS011;75166;51.198;6.010;2024-02-26T05:35:21;7.30;;;2.30;;
84901;SDS011;75166;51.198;6.010;2024-02-26T05:37:46;8.02;;;2.30;;
84901;SDS011;75166;51.198;6.010;2024-02-26T05:40:12;8.02;;;2.10;;
84901;SDS011;75166;51.198;6.010;2024-02-26T05:42:38;7.60;;;2.10;;
84901;SDS011;75166;51.198;6.010;2024-02-26T05:45:04;8.38;;;2.50;;
84901;SDS011;75166;51.198;6.010;2024-02-26T05:47:34;6.88;;;2.22;;
84901;SDS011;75166;51.198;6.010;2024-02-26T05:50:01;6.15;;;2.00;;
84901;SDS011;75166;51.198;6.010;2024-02-26T05:52:27;8.15;;;2.38;;
84901;SDS011;75166;51.198;6.010;2024-02-26T05:54:54;7.32;;;2.17;;
84901;SDS011;75166;51.198;6.010;2024-02-26T05:57:20;8.45;;;2.70;;
84901;SDS011;75166;51.198;6.010;2024-02-26T05:59:45;8.30;;;2.50;;
84901;SDS011;75166;51.198;6.010;2024-02-26T06:02:11;8.07;;;2.55;;
84901;SDS011;75166;51.198;6.010;2024-02-26T06:04:36;7.68;;;2.22;;
84901;SDS011;75166;51.198;6.010;2024-02-26T06:07:02;8.95;;;2.60;;
84901;SDS011;75166;51.198;6.010;2024-02-26T06:09:27;7.10;;;2.40;;
84901;SDS011;75166;51.198;6.010;2024-02-26T06:11:53;9.80;;;2.60;;
84901;SDS011;75166;51.198;6.010;2024-02-26T06:14:19;8.43;;;2.75;;
84901;SDS011;75166;51.198;6.010;2024-02-26T06:16:45;8.05;;;2.55;;
84901;SDS011;75166;51.198;6.010;2024-02-26T06:19:11;8.52;;;2.80;;
84901;SDS011;75166;51.198;6.010;2024-02-26T06:21:37;8.48;;;2.58;;
84901;SDS011;75166;51.198;6.010;2024-02-26T06:24:02;8.50;;;2.50;;
84901;SDS011;75166;51.198;6.010;2024-02-26T06:26:28;8.45;;;2.50;;
84901;SDS011;75166;51.198;6.010;2024-02-26T06:28:54;7.95;;;2.65;;
84901;SDS011;75166;51.198;6.010;2024-02-26T06:31:21;8.73;;;2.70;;
84901;SDS011;75166;51.198;6.010;2024-02-26T06:33:48;8.45;;;2.70;;
84901;SDS011;75166;51.198;6.010;2024-02-26T06:36:15;7.97;;;2.60;;
84901;SDS011;75166;51.198;6.010;2024-02-26T06:38:40;9.48;;;2.70;;
84901;SDS011;75166;51.198;6.010;2024-02-26T06:41:06;9.15;;;2.90;;
84901;SDS011;75166;51.198;6.010;2024-02-26T06:43:32;8.77;;;2.70;;
84901;SDS011;75166;51.198;6.010;2024-02-26T06:45:57;8.23;;;2.55;;
84901;SDS011;75166;51.198;6.010;2024-02-26T06:48:23;9.75;;;2.97;;
84901;SDS011;75166;51.198;6.010;2024-02-26T06:50:49;7.85;;;2.92;;
84901;SDS011;75166;51.198;6.010;2024-02-26T06:53:15;8.95;;;2.90;;
84901;SDS011;75166;51.198;6.010;2024-02-26T06:55:41;8.52;;;2.80;;
84901;SDS011;75166;51.198;6.010;2024-02-26T06:58:08;8.88;;;2.90;;
84901;SDS011;75166;51.198;6.010;2024-02-26T07:00:33;9.35;;;2.80;;
84901;SDS011;75166;51.198;6.010;2024-02-26T07:02:59;10.02;;;2.78;;
84901;SDS011;75166;51.198;6.010;2024-02-26T07:05:25;8.48;;;2.70;;
84901;SDS011;75166;51.198;6.010;2024-02-26T07:07:52;8.82;;;2.90;;
84901;SDS011;75166;51.198;6.010;2024-02-26T07:10:18;9.65;;;2.80;;
84901;SDS011;75166;51.198;6.010;2024-02-26T07:12:43;9.05;;;2.90;;
84901;SDS011;75166;51.198;6.010;2024-02-26T07:15:09;9.23;;;2.85;;
84901;SDS011;75166;51.198;6.010;2024-02-26T07:17:35;8.93;;;2.88;;
84901;SDS011;75166;51.198;6.010;2024-02-26T07:20:01;9.35;;;3.10;;
84901;SDS011;75166;51.198;6.010;2024-02-26T07:22:29;10.10;;;3.70;;
84901;SDS011;75166;51.198;6.010;2024-02-26T07:24:55;9.18;;;3.00;;
84901;SDS011;75166;51.198;6.010;2024-02-26T07:27:21;8.73;;;2.90;;
84901;SDS011;75166;51.198;6.010;2024-02-26T07:29:46;10.65;;;3.45;;
84901;SDS011;75166;51.198;6.010;2024-02-26T07:32:12;8.82;;;2.85;;
84901;SDS011;75166;51.198;6.010;2024-02-26T07:34:38;9.07;;;3.20;;
84901;SDS011;75166;51.198;6.010;2024-02-26T07:37:07;9.50;;;3.30;;
84901;SDS011;75166;51.198;6.010;2024-02-26T07:39:33;10.48;;;3.20;;
84901;SDS011;75166;51.198;6.010;2024-02-26T07:41:59;7.68;;;2.70;;
84901;SDS011;75166;51.198;6.010;2024-02-26T07:44:24;9.70;;;3.08;;
84901;SDS011;75166;51.198;6.010;2024-02-26T07:46:50;9.18;;;2.88;;
84901;SDS011;75166;51.198;6.010;2024-02-26T07:49:16;8.68;;;2.72;;
84901;SDS011;75166;51.198;6.010;2024-02-26T07:51:41;8.98;;;2.97;;
84901;SDS011;75166;51.198;6.010;2024-02-26T07:54:07;8.52;;;2.95;;
84901;SDS011;75166;51.198;6.010;2024-02-26T07:56:33;8.95;;;2.92;;
84901;SDS011;75166;51.198;6.010;2024-02-26T07:58:58;8.32;;;2.88;;
84901;SDS011;75166;51.198;6.010;2024-02-26T08:01:24;8.52;;;2.78;;
84901;SDS011;75166;51.198;6.010;2024-02-26T08:03:52;9.82;;;3.30;;
84901;SDS011;75166;51.198;6.010;2024-02-26T08:06:18;10.82;;;2.88;;
84901;SDS011;75166;51.198;6.010;2024-02-26T08:08:43;8.90;;;3.10;;
84901;SDS011;75166;51.198;6.010;2024-02-26T08:11:09;9.35;;;2.70;;
84901;SDS011;75166;51.198;6.010;2024-02-26T08:13:35;8.27;;;2.70;;
84901;SDS011;75166;51.198;6.010;2024-02-26T08:16:01;9.40;;;2.75;;
84901;SDS011;75166;51.198;6.010;2024-02-26T08:18:26;9.38;;;2.80;;
84901;SDS011;75166;51.198;6.010;2024-02-26T08:20:52;8.73;;;2.90;;
84901;SDS011;75166;51.198;6.010;2024-02-26T08:23:18;9.02;;;2.80;;
84901;SDS011;75166;51.198;6.010;2024-02-26T08:25:43;8.70;;;3.00;;
84901;SDS011;75166;51.198;6.010;2024-02-26T08:28:09;8.63;;;2.78;;
84901;SDS011;75166;51.198;6.010;2024-02-26T08:30:38;8.13;;;2.63;;
84901;SDS011;75166;51.198;6.010;2024-02-26T08:33:04;9.35;;;2.90;;
84901;SDS011;75166;51.198;6.010;2024-02-26T08:35:29;8.20;;;2.80;;
84901;SDS011;75166;51.198;6.010;2024-02-26T08:37:55;8.93;;;3.08;;
84901;SDS011;75166;51.198;6.010;2024-02-26T08:40:20;8.00;;;2.80;;
84901;SDS011;75166;51.198;6.010;2024-02-26T08:42:46;9.43;;;2.80;;
84901;SDS011;75166;51.198;6.010;2024-02-26T08:45:12;9.43;;;2.90;;
84901;SDS011;75166;51.198;6.010;2024-02-26T08:47:38;9.95;;;3.10;;
84901;SDS011;75166;51.198;6.010;2024-02-26T08:50:04;10.45;;;2.88;;
84901;SDS011;75166;51.198;6.010;2024-02-26T08:52:30;8.77;;;3.20;;
84901;SDS011;75166;51.198;6.010;2024-02-26T08:54:55;8.73;;;2.97;;
84901;SDS011;75166;51.198;6.010;2024-02-26T08:57:22;10.63;;;3.00;;
84901;SDS011;75166;51.198;6.010;2024-02-26T08:59:47;8.98;;;3.03;;
84901;SDS011;75166;51.198;6.010;2024-02-26T09:02:13;9.52;;;3.00;;
84901;SDS011;75166;51.198;6.010;2024-02-26T09:04:39;10.77;;;3.28;;
84901;SDS011;75166;51.198;6.010;2024-02-26T09:07:05;9.18;;;2.75;;
84901;SDS011;75166;51.198;6.010;2024-02-26T09:09:31;9.25;;;3.20;;
84901;SDS011;75166;51.198;6.010;2024-02-26T09:11:57;8.63;;;3.00;;
84901;SDS011;75166;51.198;6.010;2024-02-26T09:14:23;10.15;;;3.20;;
84901;SDS011;75166;51.198;6.010;2024-02-26T09:16:49;9.68;;;2.92;;
84901;SDS011;75166;51.198;6.010;2024-02-26T09:19:14;9.80;;;3.05;;
84901;SDS011;75166;51.198;6.010;2024-02-26T09:21:43;7.85;;;2.78;;
84901;SDS011;75166;51.198;6.010;2024-02-26T09:24:09;8.15;;;2.75;;
84901;SDS011;75166;51.198;6.010;2024-02-26T09:26:36;8.60;;;3.03;;
84901;SDS011;75166;51.198;6.010;2024-02-26T09:29:02;8.85;;;2.90;;
84901;SDS011;75166;51.198;6.010;2024-02-26T09:31:29;8.85;;;3.15;;
84901;SDS011;75166;51.198;6.010;2024-02-26T09:33:55;8.93;;;2.83;;
84901;SDS011;75166;51.198;6.010;2024-02-26T09:36:20;9.50;;;2.95;;
84901;SDS011;75166;51.198;6.010;2024-02-26T09:38:47;8.15;;;2.70;;
84901;SDS011;75166;51.198;6.010;2024-02-26T09:41:14;8.95;;;3.30;;
84901;SDS011;75166;51.198;6.010;2024-02-26T09:43:40;8.10;;;2.97;;
84901;SDS011;75166;51.198;6.010;2024-02-26T09:46:10;9.27;;;3.10;;
84901;SDS011;75166;51.198;6.010;2024-02-26T09:48:35;8.90;;;3.03;;
84901;SDS011;75166;51.198;6.010;2024-02-26T09:51:03;9.38;;;3.03;;
84901;SDS011;75166;51.198;6.010;2024-02-26T09:53:29;8.48;;;2.95;;
84901;SDS011;75166;51.198;6.010;2024-02-26T09:55:57;9.02;;;3.13;;
84901;SDS011;75166;51.198;6.010;2024-02-26T09:58:23;8.35;;;2.70;;
84901;SDS011;75166;51.198;6.010;2024-02-26T10:00:53;9.63;;;3.22;;
84901;SDS011;75166;51.198;6.010;2024-02-26T10:03:28;9.80;;;3.10;;
84901;SDS011;75166;51.198;6.010;2024-02-26T10:05:56;10.70;;;3.28;;
84901;SDS011;75166;51.198;6.010;2024-02-26T10:08:23;9.98;;;3.25;;
84901;SDS011;75166;51.198;6.010;2024-02-26T10:10:49;8.65;;;3.10;;
84901;SDS011;75166;51.198;6.010;2024-02-26T10:13:15;8.77;;;3.20;;
84901;SDS011;75166;51.198;6.010;2024-02-26T10:15:41;9.65;;;3.30;;
84901;SDS011;75166;51.198;6.010;2024-02-26T10:18:07;9.38;;;3.40;;
84901;SDS011;75166;51.198;6.010;2024-02-26T10:20:32;9.45;;;3.25;;
84901;SDS011;75166;51.198;6.010;2024-02-26T10:22:58;9.65;;;3.50;;
84901;SDS011;75166;51.198;6.010;2024-02-26T10:25:28;10.65;;;3.85;;
84901;SDS011;75166;51.198;6.010;2024-02-26T10:27:53;9.80;;;3.47;;
84901;SDS011;75166;51.198;6.010;2024-02-26T10:30:20;9.40;;;3.58;;
84901;SDS011;75166;51.198;6.010;2024-02-26T10:32:47;9.98;;;3.30;;
84901;SDS011;75166;51.198;6.010;2024-02-26T10:35:14;8.98;;;3.45;;
84901;SDS011;75166;51.198;6.010;2024-02-26T10:37:41;10.02;;;3.83;;
84901;SDS011;75166;51.198;6.010;2024-02-26T10:40:16;10.10;;;3.60;;
84901;SDS011;75166;51.198;6.010;2024-02-26T10:42:42;10.02;;;3.30;;
84901;SDS011;75166;51.198;6.010;2024-02-26T10:45:08;10.35;;;3.85;;
84901;SDS011;75166;51.198;6.010;2024-02-26T10:47:35;10.13;;;3.53;;
84901;SDS011;75166;51.198;6.010;2024-02-26T10:50:02;9.57;;;3.58;;
84901;SDS011;75166;51.198;6.010;2024-02-26T10:52:31;9.73;;;3.67;;
84901;SDS011;75166;51.198;6.010;2024-02-26T10:55:01;10.35;;;3.90;;
84901;SDS011;75166;51.198;6.010;2024-02-26T10:57:29;9.82;;;3.80;;
84901;SDS011;75166;51.198;6.010;2024-02-26T10:59:58;9.80;;;3.58;;
84901;SDS011;75166;51.198;6.010;2024-02-26T11:02:28;11.23;;;3.53;;
84901;SDS011;75166;51.198;6.010;2024-02-26T11:05:00;9.10;;;3.45;;
84901;SDS011;75166;51.198;6.010;2024-02-26T11:07:31;8.98;;;3.17;;
84901;SDS011;75166;51.198;6.010;2024-02-26T11:10:00;9.57;;;3.88;;
84901;SDS011;75166;51.198;6.010;2024-02-26T11:12:27;9.95;;;3.50;;
84901;SDS011;75166;51.198;6.010;2024-02-26T11:14:54;9.57;;;3.83;;
84901;SDS011;75166;51.198;6.010;2024-02-26T11:17:25;9.90;;;3.80;;
84901;SDS011;75166;51.198;6.010;2024-02-26T11:19:55;9.20;;;3.60;;
84901;SDS011;75166;51.198;6.010;2024-02-26T11:22:23;9.50;;;3.65;;
84901;SDS011;75166;51.198;6.010;2024-02-26T11:24:51;8.80;;;3.20;;
84901;SDS011;75166;51.198;6.010;2024-02-26T11:27:19;9.88;;;3.30;;
84901;SDS011;75166;51.198;6.010;2024-02-26T11:29:50;9.60;;;3.53;;
84901;SDS011;75166;51.198;6.010;2024-02-26T11:32:17;9.23;;;3.47;;
84901;SDS011;75166;51.198;6.010;2024-02-26T11:34:43;8.88;;;3.30;;
84901;SDS011;75166;51.198;6.010;2024-02-26T11:37:13;9.32;;;3.50;;
84901;SDS011;75166;51.198;6.010;2024-02-26T11:39:40;10.38;;;3.60;;
84901;SDS011;75166;51.198;6.010;2024-02-26T11:42:06;9.70;;;3.65;;
84901;SDS011;75166;51.198;6.010;2024-02-26T11:44:33;9.25;;;3.80;;
84901;SDS011;75166;51.198;6.010;2024-02-26T11:47:00;9.10;;;3.22;;
84901;SDS011;75166;51.198;6.010;2024-02-26T11:49:35;9.18;;;3.20;;
84901;SDS011;75166;51.198;6.010;2024-02-26T11:52:02;10.02;;;3.90;;
84901;SDS011;75166;51.198;6.010;2024-02-26T11:54:38;10.38;;;3.60;;
84901;SDS011;75166;51.198;6.010;2024-02-26T12:00:28;8.82;;;3.30;;
84901;SDS011;75166;51.198;6.010;2024-02-26T12:02:51;9.82;;;3.63;;
84901;SDS011;75166;51.198;6.010;2024-02-26T12:05:35;9.63;;;3.58;;
84901;SDS011;75166;51.198;6.010;2024-02-26T12:08:03;9.52;;;3.80;;
84901;SDS011;75166;51.198;6.010;2024-02-26T12:13:05;10.32;;;3.83;;
84901;SDS011;75166;51.198;6.010;2024-02-26T12:15:39;10.60;;;4.22;;
84901;SDS011;75166;51.198;6.010;2024-02-26T12:18:19;9.75;;;3.65;;
84901;SDS011;75166;51.198;6.010;2024-02-26T12:20:47;10.07;;;3.80;;
84901;SDS011;75166;51.198;6.010;2024-02-26T12:23:22;9.82;;;3.60;;
84901;SDS011;75166;51.198;6.010;2024-02-26T12:25:48;10.88;;;4.05;;
84901;SDS011;75166;51.198;6.010;2024-02-26T12:28:14;11.07;;;3.90;;
84901;SDS011;75166;51.198;6.010;2024-02-26T12:30:40;9.90;;;3.60;;
84901;SDS011;75166;51.198;6.010;2024-02-26T12:33:06;9.55;;;3.60;;
84901;SDS011;75166;51.198;6.010;2024-02-26T12:35:33;10.40;;;3.70;;
84901;SDS011;75166;51.198;6.010;2024-02-26T12:38:00;10.00;;;3.50;;
84901;SDS011;75166;51.198;6.010;2024-02-26T12:40:26;9.20;;;3.60;;
84901;SDS011;75166;51.198;6.010;2024-02-26T12:42:53;9.48;;;3.28;;
84901;SDS011;75166;51.198;6.010;2024-02-26T12:45:20;9.60;;;3.38;;
84901;SDS011;75166;51.198;6.010;2024-02-26T12:47:45;9.88;;;3.63;;
84901;SDS011;75166;51.198;6.010;2024-02-26T12:50:12;8.95;;;3.20;;
84901;SDS011;75166;51.198;6.010;2024-02-26T12:52:43;9.80;;;3.38;;
84901;SDS011;75166;51.198;6.010;2024-02-26T12:55:11;9.63;;;3.20;;
84901;SDS011;75166;51.198;6.010;2024-02-26T12:57:41;9.73;;;3.50;;
84901;SDS011;75166;51.198;6.010;2024-02-26T13:00:12;8.65;;;3.47;;
84901;SDS011;75166;51.198;6.010;2024-02-26T13:02:39;9.48;;;3.13;;
84901;SDS011;75166;51.198;6.010;2024-02-26T13:05:08;9.77;;;3.22;;
84901;SDS011;75166;51.198;6.010;2024-02-26T13:07:34;10.40;;;3.22;;
84901;SDS011;75166;51.198;6.010;2024-02-26T13:10:05;9.75;;;3.30;;
84901;SDS011;75166;51.198;6.010;2024-02-26T13:12:32;9.68;;;3.50;;
84901;SDS011;75166;51.198;6.010;2024-02-26T13:15:01;10.10;;;3.42;;
84901;SDS011;75166;51.198;6.010;2024-02-26T13:17:27;8.88;;;3.25;;
84901;SDS011;75166;51.198;6.010;2024-02-26T13:19:56;9.23;;;3.10;;
84901;SDS011;75166;51.198;6.010;2024-02-26T13:22:22;11.23;;;3.55;;
84901;SDS011;75166;51.198;6.010;2024-02-26T13:24:58;8.63;;;3.00;;
84901;SDS011;75166;51.198;6.010;2024-02-26T13:27:24;9.98;;;3.60;;
84901;SDS011;75166;51.198;6.010;2024-02-26T13:30:09;9.80;;;3.60;;
84901;SDS011;75166;51.198;6.010;2024-02-26T13:32:37;10.65;;;3.50;;
84901;SDS011;75166;51.198;6.010;2024-02-26T13:35:08;10.43;;;3.72;;
84901;SDS011;75166;51.198;6.010;2024-02-26T13:37:35;10.00;;;3.50;;
84901;SDS011;75166;51.198;6.010;2024-02-26T13:40:04;10.80;;;3.47;;
84901;SDS011;75166;51.198;6.010;2024-02-26T13:42:30;9.52;;;3.70;;
84901;SDS011;75166;51.198;6.010;2024-02-26T13:44:56;11.73;;;4.00;;
84901;SDS011;75166;51.198;6.010;2024-02-26T13:47:22;10.73;;;4.00;;
84901;SDS011;75166;51.198;6.010;2024-02-26T13:49:47;10.95;;;3.92;;
84901;SDS011;75166;51.198;6.010;2024-02-26T13:52:13;10.20;;;3.50;;
84901;SDS011;75166;51.198;6.010;2024-02-26T13:54:39;11.23;;;4.10;;
84901;SDS011;75166;51.198;6.010;2024-02-26T13:57:05;10.68;;;3.72;;
84901;SDS011;75166;51.198;6.010;2024-02-26T13:59:31;9.95;;;3.60;;
84901;SDS011;75166;51.198;6.010;2024-02-26T14:01:57;10.43;;;4.13;;
84901;SDS011;75166;51.198;6.010;2024-02-26T14:04:23;11.35;;;4.00;;
84901;SDS011;75166;51.198;6.010;2024-02-26T14:06:48;11.05;;;4.15;;
84901;SDS011;75166;51.198;6.010;2024-02-26T14:09:14;11.00;;;3.70;;
84901;SDS011;75166;51.198;6.010;2024-02-26T14:11:45;11.05;;;4.30;;
84901;SDS011;75166;51.198;6.010;2024-02-26T14:14:10;11.27;;;3.97;;
84901;SDS011;75166;51.198;6.010;2024-02-26T14:16:36;11.63;;;4.05;;
84901;SDS011;75166;51.198;6.010;2024-02-26T14:19:02;10.38;;;3.90;;
84901;SDS011;75166;51.198;6.010;2024-02-26T14:21:28;10.38;;;3.95;;
84901;SDS011;75166;51.198;6.010;2024-02-26T14:23:54;11.55;;;4.63;;
84901;SDS011;75166;51.198;6.010;2024-02-26T14:26:21;11.88;;;4.45;;
84901;SDS011;75166;51.198;6.010;2024-02-26T14:28:49;10.68;;;4.13;;
84901;SDS011;75166;51.198;6.010;2024-02-26T14:31:18;10.52;;;3.92;;
84901;SDS011;75166;51.198;6.010;2024-02-26T14:33:44;11.07;;;4.50;;
84901;SDS011;75166;51.198;6.010;2024-02-26T14:36:10;11.15;;;3.88;;
84901;SDS011;75166;51.198;6.010;2024-02-26T14:38:36;10.32;;;3.72;;
84901;SDS011;75166;51.198;6.010;2024-02-26T14:41:02;11.25;;;4.28;;
84901;SDS011;75166;51.198;6.010;2024-02-26T14:43:29;10.82;;;4.18;;
84901;SDS011;75166;51.198;6.010;2024-02-26T14:45:55;9.93;;;4.03;;
84901;SDS011;75166;51.198;6.010;2024-02-26T14:48:22;12.00;;;3.90;;
84901;SDS011;75166;51.198;6.010;2024-02-26T14:50:47;10.32;;;4.10;;